Maersk Wakamatsu — 3EZG — position and weather

sailwx.info

Track history (hours):
 
Tides and Currents Weather Stations Pressure Air Temp Water Temp Dewpoint Dewpoint Depression Visibility Wind Speed Wind Dir Waves Ship Positions

Maersk Wakamatsu

Last reported at 2016-Feb-03 13:29 UTC. Time now 2016-Feb-05 22:14 UTC.
Position N 19°35' W 095°55'.

Length 172 m; draft 5.6 m.

Type: Cargo ship. MMSI: 370484000.

Date/timePositionNaut miles runAvg speedWind from/ knotsBaromVisibWave heightAir tempDewpointWater temp
2016-Feb-03 13:29N 19°35' W 095°55'1212.8
2016-Feb-03 12:33N 19°24' W 095°49'1312.6
2016-Feb-03 11:31N 19°12' W 095°44'1313.2
2016-Feb-03 10:33N 19°11' W 095°57'1010.2
2016-Feb-03 09:34N 19°12' W 096°08'0 0.3
2016-Feb-03 08:33N 19°13' W 096°08'0 0.0
2016-Feb-03 07:33N 19°13' W 096°08'0 0.0
2016-Feb-03 06:33N 19°13' W 096°08'0 0.0
2016-Feb-03 05:33N 19°13' W 096°08'4 3.9
2016-Feb-03 04:33N 19°12' W 096°04'6 5.7
2016-Feb-03 03:33N 19°13' W 095°58'0 0.4
2016-Feb-03 02:33N 19°13' W 095°58'1 0.6
2016-Feb-03 01:33N 19°13' W 095°57'3 3.1
2016-Feb-03 00:33N 19°14' W 095°54'7 7.2
2016-Feb-02 23:33N 19°14' W 095°47'6 5.3
2016-Feb-02 22:25N 19°15' W 095°40'0 0.5
2016-Feb-02 21:25N 19°16' W 095°40'0 0.5
2016-Feb-02 20:31N 19°16' W 095°40'1 0.5
2016-Feb-02 19:19N 19°17' W 095°40'0 0.3
2016-Feb-02 18:30N 19°17' W 095°39'6 6.3
2016-Feb-02 17:33N 19°12' W 095°35'6 6.2
2016-Feb-02 16:33N 19°18' W 095°35'1110.9
2016-Feb-02 15:33N 19°27' W 095°42'3411.4
2016-Feb-02 12:33N 20°00' W 095°36'  
2016-Jan-31 05:06N 29°07' W 094°25'610.0
2016-Jan-31 04:29N 29°11' W 094°30'1110.4
2016-Jan-31 03:25N 29°19' W 094°39'9 9.8
2016-Jan-31 02:32N 29°22' W 094°48'1110.9
2016-Jan-31 01:33N 29°32' W 094°54'8 7.3
2016-Jan-31 00:32N 29°37' W 095°00'0 0.0
2016-Jan-30 23:32N 29°37' W 095°00'0 0.0
2016-Jan-30 22:32N 29°37' W 095°00'0 0.0
2016-Jan-30 21:32N 29°37' W 095°00'0 0.0
2016-Jan-30 20:32N 29°37' W 095°00'0 0.0
2016-Jan-30 19:32N 29°37' W 095°00'0 0.0
2016-Jan-30 18:32N 29°37' W 095°00'0 0.0
2016-Jan-30 17:29N 29°37' W 095°00'0 0.0
2016-Jan-30 16:32N 29°37' W 095°00'0 0.0
2016-Jan-30 15:32N 29°37' W 095°00'0 0.0
2016-Jan-30 14:32N 29°37' W 095°00'0 0.0
2016-Jan-30 13:32N 29°37' W 095°00'0 0.0
2016-Jan-30 12:32N 29°37' W 095°00'0 0.0
2016-Jan-30 11:33N 29°37' W 095°00'3 2.9
2016-Jan-30 10:33N 29°36' W 094°57'1312.8
2016-Jan-30 09:33N 29°25' W 094°50'1110.7
2016-Jan-30 08:33N 29°19' W 094°39'1211.6
2016-Jan-30 07:28N 29°12' W 094°28'1111.9
2016-Jan-30 06:33N 29°06' W 094°17'1212.1
2016-Jan-30 05:33N 28°59' W 094°06'1212.4
2016-Jan-30 04:33N 28°51' W 093°55'1212.3
2016-Jan-30 03:33N 28°44' W 093°43'1312.5
2016-Jan-30 02:31N 28°37' W 093°31'1212.2
2016-Jan-30 01:31N 28°30' W 093°20'  
Track history (hours):
 
Tides and Currents Weather Stations Pressure Air Temp Water Temp Dewpoint Dewpoint Depression Visibility Wind Speed Wind Dir Waves Ship Positions

Maersk Wakamatsu

Last reported at 2016-Feb-03 13:29 UTC. Time now 2016-Feb-05 22:14 UTC.
Position N 19°35' W 095°55'.

Length 172 m; draft 5.6 m.

Type: Cargo ship. MMSI: 370484000.

Date/timePositionNaut miles runAvg speedWind from/ knotsBaromVisibWave heightAir tempDewpointWater temp
2016-Feb-03 13:29N 19°35' W 095°55'1212.8
2016-Feb-03 12:33N 19°24' W 095°49'1312.6
2016-Feb-03 11:31N 19°12' W 095°44'1313.2
2016-Feb-03 10:33N 19°11' W 095°57'1010.2
2016-Feb-03 09:34N 19°12' W 096°08'0 0.3
2016-Feb-03 08:33N 19°13' W 096°08'0 0.0
2016-Feb-03 07:33N 19°13' W 096°08'0 0.0
2016-Feb-03 06:33N 19°13' W 096°08'0 0.0
2016-Feb-03 05:33N 19°13' W 096°08'4 3.9
2016-Feb-03 04:33N 19°12' W 096°04'6 5.7
2016-Feb-03 03:33N 19°13' W 095°58'0 0.4
2016-Feb-03 02:33N 19°13' W 095°58'1 0.6
2016-Feb-03 01:33N 19°13' W 095°57'3 3.1
2016-Feb-03 00:33N 19°14' W 095°54'7 7.2
2016-Feb-02 23:33N 19°14' W 095°47'6 5.3
2016-Feb-02 22:25N 19°15' W 095°40'0 0.5
2016-Feb-02 21:25N 19°16' W 095°40'0 0.5
2016-Feb-02 20:31N 19°16' W 095°40'1 0.5
2016-Feb-02 19:19N 19°17' W 095°40'0 0.3
2016-Feb-02 18:30N 19°17' W 095°39'6 6.3
2016-Feb-02 17:33N 19°12' W 095°35'6 6.2
2016-Feb-02 16:33N 19°18' W 095°35'1110.9
2016-Feb-02 15:33N 19°27' W 095°42'3411.4
2016-Feb-02 12:33N 20°00' W 095°36'  
2016-Jan-31 05:06N 29°07' W 094°25'610.0
2016-Jan-31 04:29N 29°11' W 094°30'1110.4
2016-Jan-31 03:25N 29°19' W 094°39'9 9.8
2016-Jan-31 02:32N 29°22' W 094°48'1110.9
2016-Jan-31 01:33N 29°32' W 094°54'8 7.3
2016-Jan-31 00:32N 29°37' W 095°00'0 0.0
2016-Jan-30 23:32N 29°37' W 095°00'0 0.0
2016-Jan-30 22:32N 29°37' W 095°00'0 0.0
2016-Jan-30 21:32N 29°37' W 095°00'0 0.0
2016-Jan-30 20:32N 29°37' W 095°00'0 0.0
2016-Jan-30 19:32N 29°37' W 095°00'0 0.0
2016-Jan-30 18:32N 29°37' W 095°00'0 0.0
2016-Jan-30 17:29N 29°37' W 095°00'0 0.0
2016-Jan-30 16:32N 29°37' W 095°00'0 0.0
2016-Jan-30 15:32N 29°37' W 095°00'0 0.0
2016-Jan-30 14:32N 29°37' W 095°00'0 0.0
2016-Jan-30 13:32N 29°37' W 095°00'0 0.0
2016-Jan-30 12:32N 29°37' W 095°00'0 0.0
2016-Jan-30 11:33N 29°37' W 095°00'3 2.9
2016-Jan-30 10:33N 29°36' W 094°57'1312.8
2016-Jan-30 09:33N 29°25' W 094°50'1110.7
2016-Jan-30 08:33N 29°19' W 094°39'1211.6
2016-Jan-30 07:28N 29°12' W 094°28'1111.9
2016-Jan-30 06:33N 29°06' W 094°17'1212.1
2016-Jan-30 05:33N 28°59' W 094°06'1212.4
2016-Jan-30 04:33N 28°51' W 093°55'1212.3
2016-Jan-30 03:33N 28°44' W 093°43'1312.5
2016-Jan-30 02:31N 28°37' W 093°31'1212.2
2016-Jan-30 01:31N 28°30' W 093°20'  

Dump ship's entire track history